66.8°F
Current conditions from King Hill
Updated every 5 minutes
 
  Monday September 1, 2014

Station Historical Data
Daily Summary for March 19, 2012 Units:  English    Metric   Both
« Previous Day
Next Day »
Daily Weekly Monthly Yearly Custom
  High: Low: Average:
Temperature: 77.1 °F 49.2 °F 62.5 °F
Dew Point: 54.8 °F 43.9 °F 50.5 °F
Humidity: 87% 44% 67%
Wind Speed: 8.0mph 1.0mph 2.8mph
Wind Gust: 14.0mph - -
Wind- - WSW
Pressure: 30.14 in 30.05 in -
Precipitation: 0.03 in    
Historical Graphs
 
 
Tabular Data for March 19, 2012
Time Temperature Dew Point Pressure Wind Wind Speed Wind Gust Humidity Daily Rainfall
00:00 61.2 °F 45.9 °F 30.05 in SSW 2.0 mph 7.0 mph 57% 0.00 in
00:05 61.1 °F 45.8 °F 30.05 in SSW 1.0 mph 5.0 mph 57% 0.00 in
00:10 61.0 °F 45.7 °F 30.05 in SSW 1.0 mph 5.0 mph 57% 0.00 in
00:15 60.9 °F 45.6 °F 30.05 in SSW 2.0 mph 6.0 mph 57% 0.00 in
00:20 60.9 °F 45.6 °F 30.05 in SSW 3.0 mph 8.0 mph 57% 0.00 in
00:25 61.0 °F 45.2 °F 30.05 in SSW 1.0 mph 8.0 mph 56% 0.00 in
00:30 60.8 °F 45.5 °F 30.05 in SSW 1.0 mph 6.0 mph 57% 0.00 in
00:40 60.4 °F 45.1 °F 30.05 in Calm   7.0 mph 57% 0.00 in
00:45 59.9 °F 44.6 °F 30.05 in Calm   7.0 mph 57% 0.00 in
00:50 59.6 °F 44.4 °F 30.05 in Calm   4.0 mph 57% 0.00 in
00:55 59.7 °F 44.5 °F 30.05 in Calm   4.0 mph 57% 0.00 in
01:00 59.8 °F 44.5 °F 30.05 in Calm   1.0 mph 57% 0.00 in
01:05 59.8 °F 44.5 °F 30.05 in Calm   3.0 mph 57% 0.00 in
01:09 59.9 °F 44.6 °F 30.05 in Calm   3.0 mph 57% 0.00 in
01:15 59.9 °F 44.6 °F 30.05 in Calm     57% 0.00 in
01:20 59.6 °F 44.8 °F 30.05 in Calm     58% 0.00 in
01:25 59.0 °F 45.1 °F 30.05 in Calm     60% 0.00 in
01:30 58.1 °F 43.9 °F 30.05 in Calm     59% 0.00 in
01:35 58.2 °F 44.4 °F 30.05 in SSW 1.0 mph 7.0 mph 60% 0.00 in
01:40 58.1 °F 44.7 °F 30.05 in Calm   7.0 mph 61% 0.00 in
01:45 58.0 °F 44.2 °F 30.05 in Calm     60% 0.00 in
01:50 57.7 °F 44.4 °F 30.05 in Calm     61% 0.00 in
01:55 57.3 °F 44.4 °F 30.05 in Calm     62% 0.00 in
02:00 56.7 °F 44.7 °F 30.06 in Calm     64% 0.00 in
02:05 56.0 °F 46.0 °F 30.06 in Calm     69% 0.00 in
02:10 55.8 °F 46.2 °F 30.07 in Calm     70% 0.00 in
02:15 55.7 °F 46.1 °F 30.07 in Calm     70% 0.00 in
02:20 56.3 °F 47.4 °F 30.07 in Calm     72% 0.00 in
02:25 56.0 °F 48.9 °F 30.07 in Calm     77% 0.01 in
02:30 55.6 °F 49.5 °F 30.08 in Calm     80% 0.01 in
02:35 55.1 °F 49.4 °F 30.07 in Calm     81% 0.01 in
02:40 54.8 °F 49.4 °F 30.07 in Calm     82% 0.01 in
02:50 54.2 °F 49.2 °F 30.07 in Calm     83% 0.01 in
02:55 54.2 °F 49.8 °F 30.07 in Calm     85% 0.01 in
03:00 54.1 °F 49.7 °F 30.07 in Calm     85% 0.02 in
03:05 54.3 °F 49.9 °F 30.06 in South 3.0 mph 5.0 mph 85% 0.02 in
03:09 54.9 °F 49.8 °F 30.05 in South 1.0 mph 5.0 mph 83% 0.02 in
03:15 55.2 °F 49.8 °F 30.06 in Calm   4.0 mph 82% 0.02 in
03:20 55.1 °F 49.7 °F 30.06 in Calm   3.0 mph 82% 0.02 in
03:24 54.8 °F 49.7 °F 30.05 in Calm     83% 0.03 in
03:30 54.4 °F 49.7 °F 30.06 in Calm     84% 0.03 in
03:35 53.7 °F 49.3 °F 30.06 in Calm     85% 0.03 in
03:39 53.4 °F 49.3 °F 30.06 in Calm     86% 0.03 in
03:45 53.3 °F 49.2 °F 30.06 in South 1.0 mph 4.0 mph 86% 0.03 in
03:50 53.4 °F 49.0 °F 30.06 in Calm   4.0 mph 85% 0.03 in
03:55 53.4 °F 49.0 °F 30.06 in South 1.0 mph 4.0 mph 85% 0.03 in
04:00 53.9 °F 48.9 °F 30.06 in South 4.0 mph 7.0 mph 83% 0.03 in
04:05 54.5 °F 48.8 °F 30.06 in SSW 3.0 mph 7.0 mph 81% 0.03 in
04:09 54.8 °F 48.8 °F 30.06 in Calm   6.0 mph 80% 0.03 in
04:15 55.0 °F 48.9 °F 30.06 in SSW 2.0 mph 4.0 mph 80% 0.03 in
04:20 54.9 °F 48.9 °F 30.06 in Calm   4.0 mph 80% 0.03 in
04:24 54.6 °F 48.9 °F 30.06 in Calm     81% 0.03 in
04:30 54.3 °F 48.9 °F 30.06 in Calm     82% 0.03 in
04:35 53.6 °F 48.6 °F 30.07 in Calm     83% 0.03 in
04:40 53.2 °F 48.8 °F 30.07 in Calm     85% 0.03 in
04:44 52.8 °F 48.4 °F 30.07 in Calm     85% 0.03 in
04:50 52.4 °F 48.0 °F 30.07 in Calm     85% 0.03 in
04:54 51.9 °F 47.5 °F 30.07 in Calm     85% 0.03 in
04:59 51.9 °F 47.5 °F 30.07 in Calm     85% 0.03 in
05:05 52.2 °F 47.8 °F 30.08 in Calm   1.0 mph 85% 0.03 in
05:10 52.6 °F 47.9 °F 30.07 in Calm   1.0 mph 84% 0.03 in
05:15 52.7 °F 48.0 °F 30.07 in Calm   1.0 mph 84% 0.03 in
05:20 52.4 °F 47.4 °F 30.08 in Calm     83% 0.03 in
05:30 52.1 °F 47.1 °F 30.08 in Calm   1.0 mph 83% 0.03 in
05:40 52.0 °F 47.3 °F 30.08 in Calm     84% 0.03 in
05:45 52.0 °F 47.0 °F 30.08 in Calm     83% 0.03 in
05:50 51.9 °F 46.9 °F 30.08 in Calm     83% 0.03 in
05:55 51.8 °F 46.8 °F 30.08 in Calm     83% 0.03 in
06:00 51.4 °F 46.4 °F 30.08 in Calm     83% 0.03 in
06:05 50.8 °F 46.1 °F 30.08 in Calm     84% 0.03 in
06:09 50.3 °F 45.7 °F 30.08 in Calm     84% 0.03 in
06:15 50.1 °F 45.8 °F 30.08 in Calm     85% 0.03 in
06:20 49.8 °F 45.5 °F 30.08 in Calm     85% 0.03 in
06:24 49.8 °F 45.8 °F 30.08 in Calm     86% 0.03 in
06:30 49.8 °F 45.8 °F 30.09 in Calm     86% 0.03 in
06:35 49.8 °F 46.1 °F 30.09 in Calm     87% 0.03 in
06:45 49.8 °F 46.1 °F 30.09 in Calm     87% 0.03 in
06:49 49.9 °F 46.2 °F 30.09 in Calm     87% 0.03 in
06:55 49.7 °F 45.7 °F 30.09 in Calm     86% 0.03 in
07:00 49.6 °F 45.9 °F 30.09 in Calm     87% 0.03 in
07:05 49.4 °F 45.4 °F 30.09 in Calm     86% 0.03 in
07:09 49.2 °F 45.5 °F 30.09 in Calm     87% 0.03 in
07:15 49.7 °F 46.0 °F 30.10 in Calm     87% 0.03 in
07:20 50.2 °F 46.5 °F 30.10 in Calm   1.0 mph 87% 0.03 in
07:24 51.0 °F 47.0 °F 30.10 in Calm   1.0 mph 86% 0.03 in
07:30 51.9 °F 47.5 °F 30.10 in SSW 2.0 mph 6.0 mph 85% 0.03 in
07:35 52.5 °F 47.8 °F 30.10 in SSW 1.0 mph 6.0 mph 84% 0.03 in
07:39 53.0 °F 47.7 °F 30.10 in SSW 3.0 mph 6.0 mph 82% 0.03 in
07:44 53.3 °F 47.6 °F 30.10 in Calm   6.0 mph 81% 0.03 in
07:50 53.5 °F 47.8 °F 30.10 in Calm   5.0 mph 81% 0.03 in
07:55 53.6 °F 47.6 °F 30.10 in Calm   4.0 mph 80% 0.03 in
07:59 54.0 °F 47.6 °F 30.10 in SSW 1.0 mph 5.0 mph 79% 0.03 in
08:05 54.1 °F 47.7 °F 30.10 in SSW 3.0 mph 5.0 mph 79% 0.03 in
08:10 54.4 °F 47.7 °F 30.10 in SSW 4.0 mph 6.0 mph 78% 0.03 in
08:14 54.5 °F 47.8 °F 30.10 in SSW 2.0 mph 7.0 mph 78% 0.03 in
08:20 54.6 °F 47.9 °F 30.10 in SSW 3.0 mph 7.0 mph 78% 0.03 in
08:25 55.1 °F 48.4 °F 30.10 in SSW 4.0 mph 7.0 mph 78% 0.03 in
08:34 56.2 °F 48.7 °F 30.11 in SW 4.0 mph 9.0 mph 76% 0.03 in
08:40 56.9 °F 49.1 °F 30.11 in SW 3.0 mph 9.0 mph 75% 0.03 in
08:45 57.6 °F 49.0 °F 30.11 in SW 3.0 mph 8.0 mph 73% 0.03 in
08:50 58.3 °F 49.3 °F 30.12 in SSW 3.0 mph 8.0 mph 72% 0.03 in
08:54 58.7 °F 49.7 °F 30.12 in SSW 4.0 mph 10.0 mph 72% 0.03 in
08:59 58.8 °F 49.4 °F 30.12 in SSW 6.0 mph 10.0 mph 71% 0.03 in
09:05 58.9 °F 49.5 °F 30.12 in SSW 6.0 mph 10.0 mph 71% 0.03 in
09:09 59.0 °F 49.6 °F 30.12 in SSW 6.0 mph 10.0 mph 71% 0.03 in
09:14 59.0 °F 49.6 °F 30.12 in SSW 3.0 mph 10.0 mph 71% 0.03 in
09:20 59.3 °F 49.9 °F 30.12 in SSW 5.0 mph 10.0 mph 71% 0.03 in
09:25 59.5 °F 50.1 °F 30.12 in SSW 7.0 mph 11.0 mph 71% 0.03 in
09:30 59.8 °F 50.0 °F 30.12 in SSW 6.0 mph 12.0 mph 70% 0.03 in
09:34 60.1 °F 49.9 °F 30.12 in SW 5.0 mph 12.0 mph 69% 0.03 in
09:40 60.2 °F 49.6 °F 30.12 in SSW 7.0 mph 12.0 mph 68% 0.03 in
09:45 60.3 °F 50.1 °F 30.12 in SSW 6.0 mph 12.0 mph 69% 0.03 in
09:50 60.8 °F 50.6 °F 30.12 in SSW 5.0 mph 11.0 mph 69% 0.03 in
10:00 61.6 °F 50.5 °F 30.11 in SSW 6.0 mph 13.0 mph 67% 0.03 in
10:05 62.1 °F 51.4 °F 30.12 in SSW 4.0 mph 11.0 mph 68% 0.03 in
10:09 62.7 °F 51.6 °F 30.12 in SSW 5.0 mph 10.0 mph 67% 0.03 in
10:15 63.2 °F 51.7 °F 30.12 in SSW 6.0 mph 11.0 mph 66% 0.03 in
10:20 63.9 °F 52.3 °F 30.12 in SSW 6.0 mph 11.0 mph 66% 0.03 in
10:25 64.3 °F 52.3 °F 30.12 in SSW 5.0 mph 11.0 mph 65% 0.03 in
10:30 64.7 °F 52.3 °F 30.12 in SW 8.0 mph 12.0 mph 64% 0.03 in
10:35 64.3 °F 51.9 °F 30.12 in South 6.0 mph 13.0 mph 64% 0.03 in
10:40 64.6 °F 51.3 °F 30.12 in SW 7.0 mph 14.0 mph 62% 0.03 in
10:45 64.7 °F 51.8 °F 30.12 in SSW 6.0 mph 14.0 mph 63% 0.03 in
10:50 65.4 °F 51.6 °F 30.13 in SW 6.0 mph 10.0 mph 61% 0.03 in
10:54 66.0 °F 51.7 °F 30.13 in SW 3.0 mph 10.0 mph 60% 0.03 in
10:59 66.5 °F 51.7 °F 30.13 in South 3.0 mph 7.0 mph 59% 0.03 in
11:04 67.0 °F 52.7 °F 30.13 in SSE 2.0 mph 7.0 mph 60% 0.03 in
11:10 67.6 °F 52.8 °F 30.13 in Calm   7.0 mph 59% 0.03 in
11:14 68.2 °F 52.4 °F 30.13 in SSE 1.0 mph 6.0 mph 57% 0.03 in
11:20 68.5 °F 52.7 °F 30.13 in Calm   4.0 mph 57% 0.03 in
11:25 68.9 °F 53.1 °F 30.13 in Calm   1.0 mph 57% 0.03 in
11:35 69.3 °F 52.5 °F 30.13 in Calm   1.0 mph 55% 0.03 in
11:40 69.6 °F 52.7 °F 30.12 in Calm   3.0 mph 55% 0.03 in
11:50 70.5 °F 53.1 °F 30.12 in Calm   5.0 mph 54% 0.03 in
11:55 71.0 °F 53.0 °F 30.12 in Calm   5.0 mph 53% 0.03 in
11:59 71.1 °F 53.1 °F 30.12 in SW 2.0 mph 6.0 mph 53% 0.03 in
12:04 71.1 °F 53.1 °F 30.12 in WSW 2.0 mph 6.0 mph 53% 0.03 in
12:09 71.4 °F 53.4 °F 30.12 in Calm   6.0 mph 53% 0.03 in
12:15 71.3 °F 53.8 °F 30.12 in Calm   6.0 mph 54% 0.03 in
12:19 71.3 °F 53.8 °F 30.12 in SW 1.0 mph 6.0 mph 54% 0.03 in
12:24 71.5 °F 53.5 °F 30.12 in Calm   5.0 mph 53% 0.03 in
12:30 72.4 °F 54.8 °F 30.12 in Calm   1.0 mph 54% 0.03 in
12:34 73.0 °F 54.4 °F 30.12 in Calm   5.0 mph 52% 0.03 in
12:39 73.1 °F 53.9 °F 30.12 in Calm   5.0 mph 51% 0.03 in
12:45 73.3 °F 54.1 °F 30.12 in SW 1.0 mph 5.0 mph 51% 0.03 in
12:55 73.0 °F 53.8 °F 30.12 in WNW 1.0 mph 6.0 mph 51% 0.03 in
12:59 73.3 °F 54.6 °F 30.12 in Calm   4.0 mph 52% 0.03 in
13:04 73.8 °F 54.6 °F 30.12 in NNE 1.0 mph 5.0 mph 51% 0.03 in
13:09 74.2 °F 54.4 °F 30.11 in NW 2.0 mph 7.0 mph 50% 0.03 in
13:15 74.2 °F 53.8 °F 30.11 in NNE 3.0 mph 8.0 mph 49% 0.03 in
13:19 73.8 °F 53.5 °F 30.11 in NW 3.0 mph 9.0 mph 49% 0.03 in
13:25 73.7 °F 53.9 °F 30.11 in NNW 1.0 mph 9.0 mph 50% 0.03 in
13:29 73.7 °F 53.9 °F 30.11 in WNW 1.0 mph 7.0 mph 50% 0.03 in
13:35 73.9 °F 54.1 °F 30.11 in WSW 1.0 mph 10.0 mph 50% 0.03 in
13:40 74.0 °F 53.7 °F 30.11 in WNW 2.0 mph 10.0 mph 49% 0.03 in
13:44 74.0 °F 54.7 °F 30.11 in NW 2.0 mph 7.0 mph 51% 0.03 in
13:49 74.4 °F 54.6 °F 30.11 in West 2.0 mph 7.0 mph 50% 0.03 in
13:54 74.5 °F 53.5 °F 30.10 in SW 1.0 mph 6.0 mph 48% 0.03 in
14:00 74.3 °F 53.9 °F 30.10 in Calm   5.0 mph 49% 0.03 in
14:04 74.7 °F 54.3 °F 30.10 in Calm   5.0 mph 49% 0.03 in
14:09 75.3 °F 54.3 °F 30.10 in West 3.0 mph 6.0 mph 48% 0.03 in
14:15 75.0 °F 54.0 °F 30.10 in WNW 3.0 mph 7.0 mph 48% 0.03 in
14:19 74.8 °F 53.8 °F 30.10 in West 1.0 mph 7.0 mph 48% 0.03 in
14:24 75.3 °F 54.8 °F 30.10 in West 4.0 mph 7.0 mph 49% 0.03 in
14:30 75.5 °F 54.5 °F 30.10 in Calm   7.0 mph 48% 0.03 in
14:34 75.7 °F 54.1 °F 30.10 in WSW 1.0 mph 7.0 mph 47% 0.03 in
14:39 75.5 °F 53.9 °F 30.09 in Calm   7.0 mph 47% 0.03 in
14:44 75.7 °F 53.5 °F 30.09 in West 1.0 mph 5.0 mph 46% 0.03 in
14:50 75.5 °F 53.3 °F 30.09 in Calm   5.0 mph 46% 0.03 in
14:54 75.7 °F 54.1 °F 30.09 in Calm   2.0 mph 47% 0.03 in
14:59 75.9 °F 54.3 °F 30.09 in WNW 2.0 mph 7.0 mph 47% 0.03 in
15:04 75.7 °F 53.5 °F 30.09 in NW 1.0 mph 7.0 mph 46% 0.03 in
15:09 76.0 °F 54.3 °F 30.09 in West 2.0 mph 7.0 mph 47% 0.03 in
15:14 76.1 °F 53.8 °F 30.09 in West 3.0 mph 7.0 mph 46% 0.03 in
15:19 76.2 °F 53.3 °F 30.09 in Calm   6.0 mph 45% 0.03 in
15:25 76.0 °F 54.3 °F 30.09 in Calm   6.0 mph 47% 0.03 in
15:30 76.2 °F 53.3 °F 30.09 in Calm   2.0 mph 45% 0.03 in
15:35 76.5 °F 54.2 °F 30.08 in NW 1.0 mph 5.0 mph 46% 0.03 in
15:40 76.8 °F 53.9 °F 30.08 in WNW 4.0 mph 8.0 mph 45% 0.03 in
15:44 76.1 °F 53.8 °F 30.08 in WNW 2.0 mph 8.0 mph 46% 0.03 in
15:50 76.3 °F 53.4 °F 30.08 in Calm   7.0 mph 45% 0.03 in
15:55 76.3 °F 54.0 °F 30.08 in WNW 2.0 mph 6.0 mph 46% 0.03 in
15:59 76.8 °F 53.9 °F 30.08 in WNW 1.0 mph 7.0 mph 45% 0.03 in
16:04 77.1 °F 54.2 °F 30.08 in NW 3.0 mph 8.0 mph 45% 0.03 in
16:10 76.5 °F 53.0 °F 30.08 in WNW 4.0 mph 9.0 mph 44% 0.03 in
16:14 75.0 °F 54.0 °F 30.08 in ESE 2.0 mph 9.0 mph 48% 0.03 in
16:20 74.0 °F 53.1 °F 30.08 in West 4.0 mph 7.0 mph 48% 0.03 in
16:25 73.5 °F 52.1 °F 30.08 in WNW 5.0 mph 8.0 mph 47% 0.03 in
16:34 75.0 °F 53.4 °F 30.08 in WNW 1.0 mph 6.0 mph 47% 0.03 in
16:39 75.7 °F 54.1 °F 30.08 in West 1.0 mph 6.0 mph 47% 0.03 in
16:45 76.0 °F 53.8 °F 30.08 in Calm   6.0 mph 46% 0.03 in
16:50 76.5 °F 53.6 °F 30.08 in WNW 1.0 mph 6.0 mph 45% 0.03 in
16:54 76.5 °F 53.6 °F 30.08 in WNW 2.0 mph 6.0 mph 45% 0.03 in
16:59 76.1 °F 53.8 °F 30.08 in Calm   7.0 mph 46% 0.03 in
17:04 76.1 °F 53.2 °F 30.08 in Calm   7.0 mph 45% 0.03 in
17:09 76.1 °F 53.8 °F 30.07 in NW 2.0 mph 6.0 mph 46% 0.03 in
17:15 76.0 °F 54.3 °F 30.07 in NW 3.0 mph 7.0 mph 47% 0.03 in
17:19 75.9 °F 54.3 °F 30.07 in NW 1.0 mph 7.0 mph 47% 0.03 in
17:24 75.4 °F 53.8 °F 30.07 in NW 3.0 mph 10.0 mph 47% 0.03 in
17:29 74.9 °F 53.9 °F 30.08 in NW 1.0 mph 10.0 mph 48% 0.03 in
17:34 74.7 °F 53.7 °F 30.08 in NW 1.0 mph 8.0 mph 48% 0.03 in
17:39 74.4 °F 53.5 °F 30.08 in NW 3.0 mph 6.0 mph 48% 0.03 in
17:45 74.2 °F 53.8 °F 30.08 in NW 2.0 mph 6.0 mph 49% 0.03 in
17:50 74.0 °F 53.7 °F 30.08 in Calm   5.0 mph 49% 0.03 in
17:54 73.6 °F 53.3 °F 30.08 in WNW 1.0 mph 5.0 mph 49% 0.03 in
17:59 73.5 °F 53.7 °F 30.08 in Calm   5.0 mph 50% 0.03 in
18:04 73.6 °F 53.8 °F 30.08 in Calm   2.0 mph 50% 0.03 in
18:09 73.2 °F 53.5 °F 30.08 in NW 2.0 mph 7.0 mph 50% 0.03 in
18:14 72.5 °F 53.4 °F 30.08 in Calm   7.0 mph 51% 0.03 in
18:19 71.8 °F 53.2 °F 30.08 in NW 2.0 mph 7.0 mph 52% 0.03 in
18:25 71.0 °F 53.0 °F 30.08 in Calm   7.0 mph 53% 0.03 in
18:29 70.0 °F 52.6 °F 30.09 in NW 1.0 mph 4.0 mph 54% 0.03 in
18:35 69.1 °F 52.3 °F 30.09 in Calm   4.0 mph 55% 0.03 in
18:40 68.3 °F 52.5 °F 30.09 in Calm   3.0 mph 57% 0.03 in
18:44 67.7 °F 52.9 °F 30.09 in Calm   1.0 mph 59% 0.03 in
18:50 67.1 °F 52.8 °F 30.09 in Calm   1.0 mph 60% 0.03 in
18:59 65.4 °F 52.5 °F 30.09 in Calm     63% 0.03 in
19:05 64.6 °F 52.2 °F 30.09 in Calm     64% 0.03 in
19:09 63.8 °F 52.2 °F 30.10 in Calm     66% 0.03 in
19:14 63.1 °F 52.0 °F 30.10 in Calm     67% 0.03 in
19:20 62.7 °F 52.0 °F 30.10 in Calm     68% 0.03 in
19:25 62.5 °F 51.8 °F 30.10 in Calm     68% 0.03 in
19:30 62.3 °F 52.0 °F 30.10 in Calm     69% 0.03 in
19:35 61.9 °F 51.6 °F 30.10 in Calm     69% 0.03 in
19:40 61.2 °F 51.7 °F 30.10 in Calm     71% 0.03 in
19:45 61.4 °F 51.9 °F 30.10 in Calm   1.0 mph 71% 0.03 in
19:49 61.0 °F 51.9 °F 30.10 in Calm   1.0 mph 72% 0.03 in
19:54 60.5 °F 51.8 °F 30.11 in Calm     73% 0.03 in
19:59 60.5 °F 51.8 °F 30.11 in Calm     73% 0.03 in
20:04 61.0 °F 52.3 °F 30.11 in Calm     73% 0.03 in
20:09 60.9 °F 52.2 °F 30.11 in Calm     73% 0.03 in
20:15 61.3 °F 52.2 °F 30.11 in Calm     72% 0.03 in
20:20 61.3 °F 52.2 °F 30.11 in Calm     72% 0.03 in
20:30 60.8 °F 51.7 °F 30.11 in Calm     72% 0.03 in
20:34 60.5 °F 52.2 °F 30.11 in NW 1.0 mph 2.0 mph 74% 0.03 in
20:40 60.7 °F 52.0 °F 30.11 in Calm   2.0 mph 73% 0.03 in
20:45 60.8 °F 52.1 °F 30.11 in Calm   2.0 mph 73% 0.03 in
20:50 60.8 °F 52.1 °F 30.11 in Calm     73% 0.03 in
20:59 61.3 °F 52.6 °F 30.11 in Calm   2.0 mph 73% 0.03 in
21:04 61.5 °F 52.4 °F 30.11 in Calm   2.0 mph 72% 0.03 in
21:10 61.5 °F 52.4 °F 30.11 in Calm   2.0 mph 72% 0.03 in
21:14 60.7 °F 51.3 °F 30.11 in Calm   2.0 mph 71% 0.03 in
21:20 59.8 °F 51.5 °F 30.12 in Calm     74% 0.03 in
21:25 59.6 °F 51.7 °F 30.11 in Calm     75% 0.03 in
21:29 59.3 °F 51.4 °F 30.11 in Calm     75% 0.03 in
21:35 59.0 °F 51.8 °F 30.11 in Calm     77% 0.03 in
21:44 59.1 °F 51.5 °F 30.12 in Calm     76% 0.03 in
21:50 59.1 °F 51.2 °F 30.12 in Calm     75% 0.03 in
21:54 59.0 °F 51.1 °F 30.12 in Calm     75% 0.03 in
21:59 58.1 °F 50.6 °F 30.12 in Calm     76% 0.03 in
22:04 57.9 °F 50.7 °F 30.12 in Calm     77% 0.03 in
22:09 57.9 °F 51.1 °F 30.12 in Calm     78% 0.03 in
22:14 57.8 °F 51.0 °F 30.12 in Calm     78% 0.03 in
22:19 57.7 °F 50.9 °F 30.12 in Calm     78% 0.03 in
22:25 57.6 °F 50.8 °F 30.12 in Calm     78% 0.03 in
22:29 57.2 °F 50.4 °F 30.13 in Calm     78% 0.03 in
22:34 56.9 °F 50.5 °F 30.13 in Calm     79% 0.03 in
22:40 56.8 °F 50.7 °F 30.13 in Calm     80% 0.03 in
22:45 56.6 °F 50.8 °F 30.13 in Calm     81% 0.03 in
22:50 56.5 °F 50.7 °F 30.13 in Calm     81% 0.03 in
22:54 56.4 °F 50.6 °F 30.14 in Calm     81% 0.03 in
22:59 56.2 °F 50.5 °F 30.14 in Calm     81% 0.03 in
23:04 56.0 °F 50.6 °F 30.14 in Calm     82% 0.03 in
23:09 55.9 °F 50.5 °F 30.14 in Calm     82% 0.03 in
23:14 55.8 °F 50.4 °F 30.14 in Calm     82% 0.03 in
23:19 55.7 °F 50.3 °F 30.14 in Calm     82% 0.03 in
23:25 55.7 °F 50.6 °F 30.14 in Calm     83% 0.03 in
23:29 56.0 °F 50.9 °F 30.14 in Calm     83% 0.03 in
23:34 56.1 °F 50.7 °F 30.14 in Calm     82% 0.03 in
23:40 56.0 °F 50.6 °F 30.14 in Calm     82% 0.03 in
23:44 56.0 °F 50.6 °F 30.14 in Calm     82% 0.03 in
23:49 55.9 °F 50.5 °F 30.14 in Calm     82% 0.03 in
23:54 55.8 °F 50.7 °F 30.14 in Calm     83% 0.03 in
23:59 55.7 °F 50.6 °F 30.14 in Calm     83% 0.03 in
Westford Weather
Compliments of Weather Underground

 
 
Current Radar Loop:

Copyright © WestfordWeather.net 2007-2014. All rights reserved.